nws-alerts: Checking more than four warning/county codes can delay the loading of your pages. You should use a cron job to get the data.
EllijayWeather Station Historical Data
Daily Summary for January 19, 2019 Units:  English    Metric   Both
Daily Weekly Monthly Yearly Custom
  High: Low: Average:
Temperature: 57.7 °F 39.4 °F 50.2 °F
Dew Point: 56.7 °F 38.8 °F 49.6 °F
Humidity: 100% 92% 98%
Wind Speed: 6.9mph 0.0mph 0.5mph
Wind Gust: 12.0mph - -
Wind- - SE
Pressure: 30.10 in 29.54 in -
Precipitation: 1.30 in    
Historical Graphs
 
 
Tabular Data for January 19, 2019
Time Temperature Dew Point Pressure Wind Wind Speed Wind Gust Humidity Rainfall Rate (Hourly) solar
00:04 39.9 °F 39.4 °F 30.10 in Calm     98% 0.00 in meteobridge W/m2
00:09 39.9 °F 39.4 °F 30.10 in Calm     98% 0.00 in meteobridge W/m2
00:14 39.9 °F 39.4 °F 30.09 in Calm     98% 0.00 in meteobridge W/m2
00:19 39.7 °F 39.2 °F 30.09 in Calm     98% 0.00 in meteobridge W/m2
00:24 39.7 °F 39.2 °F 30.09 in Calm     98% 0.00 in meteobridge W/m2
00:29 39.7 °F 39.2 °F 30.09 in Calm     98% 0.00 in meteobridge W/m2
00:34 39.7 °F 39.2 °F 30.09 in Calm     98% 0.00 in meteobridge W/m2
00:39 39.7 °F 39.2 °F 30.09 in Calm     98% 0.00 in meteobridge W/m2
00:44 39.6 °F 39.0 °F 30.09 in Calm     98% 0.00 in meteobridge W/m2
00:49 39.6 °F 39.0 °F 30.08 in Calm     98% 0.00 in meteobridge W/m2
00:54 39.6 °F 39.0 °F 30.08 in Calm     98% 0.00 in meteobridge W/m2
00:59 39.6 °F 39.0 °F 30.09 in Calm     98% 0.00 in meteobridge W/m2
01:04 39.6 °F 39.0 °F 30.08 in Calm     98% 0.00 in meteobridge W/m2
01:09 39.4 °F 38.8 °F 30.07 in Calm     98% 0.00 in meteobridge W/m2
01:14 39.4 °F 38.8 °F 30.06 in Calm     98% 0.00 in meteobridge W/m2
01:19 39.4 °F 38.8 °F 30.07 in Calm     98% 0.00 in meteobridge W/m2
01:24 39.6 °F 39.0 °F 30.07 in Calm     98% 0.00 in meteobridge W/m2
01:29 39.6 °F 39.0 °F 30.07 in Calm     98% 0.00 in meteobridge W/m2
01:34 39.7 °F 39.2 °F 30.07 in Calm     98% 0.00 in meteobridge W/m2
01:39 39.9 °F 39.4 °F 30.06 in Calm     98% 0.00 in meteobridge W/m2
01:44 39.9 °F 39.7 °F 30.06 in Calm     99% 0.00 in meteobridge W/m2
01:49 39.9 °F 39.7 °F 30.06 in Calm     99% 0.00 in meteobridge W/m2
01:54 40.1 °F 39.9 °F 30.06 in Calm     99% 0.00 in meteobridge W/m2
01:59 40.6 °F 40.5 °F 30.06 in Calm     99% 0.00 in meteobridge W/m2
02:04 40.8 °F 40.6 °F 30.07 in Calm     99% 0.00 in meteobridge W/m2
02:09 41.4 °F 41.2 °F 30.07 in Calm     99% 0.00 in meteobridge W/m2
02:14 41.5 °F 41.4 °F 30.07 in Calm     99% 0.00 in meteobridge W/m2
02:19 42.1 °F 41.9 °F 30.07 in Calm     99% 0.00 in meteobridge W/m2
02:24 42.4 °F 42.3 °F 30.07 in Calm     99% 0.00 in meteobridge W/m2
02:29 42.6 °F 42.4 °F 30.07 in Calm     99% 0.00 in meteobridge W/m2
02:34 43.0 °F 42.8 °F 30.07 in Calm     99% 0.00 in meteobridge W/m2
02:39 43.0 °F 42.8 °F 30.07 in Calm     99% 0.00 in meteobridge W/m2
02:44 43.2 °F 43.0 °F 30.06 in Calm     99% 0.00 in meteobridge W/m2
02:49 43.2 °F 43.0 °F 30.06 in Calm     99% 0.00 in meteobridge W/m2
02:54 43.3 °F 43.2 °F 30.06 in Calm     99% 0.00 in meteobridge W/m2
02:59 43.7 °F 43.5 °F 30.06 in Calm     99% 0.00 in meteobridge W/m2
03:04 43.9 °F 43.7 °F 30.06 in Calm     99% 0.00 in meteobridge W/m2
03:09 43.9 °F 43.7 °F 30.06 in Calm     99% 0.00 in meteobridge W/m2
03:14 43.9 °F 43.7 °F 30.06 in Calm     99% 0.00 in meteobridge W/m2
03:19 44.4 °F 44.2 °F 30.05 in Calm     99% 0.00 in meteobridge W/m2
03:24 45.3 °F 45.1 °F 30.04 in SE 2.0 mph 4.0 mph 99% 0.00 in meteobridge W/m2
03:29 46.4 °F 46.2 °F 30.04 in SE 0.9 mph 5.0 mph 99% 0.00 in meteobridge W/m2
03:34 46.9 °F 46.8 °F 30.05 in Calm   4.0 mph 99% 0.00 in meteobridge W/m2
03:39 47.1 °F 46.9 °F 30.05 in SE 4.9 mph 5.0 mph 99% 0.00 in meteobridge W/m2
03:44 47.5 °F 47.3 °F 30.05 in Calm   2.0 mph 99% 0.00 in meteobridge W/m2
03:49 47.5 °F 47.3 °F 30.05 in Calm   2.0 mph 99% 0.00 in meteobridge W/m2
03:54 47.7 °F 47.5 °F 30.04 in Calm   2.0 mph 99% 0.00 in meteobridge W/m2
03:59 47.7 °F 47.5 °F 30.04 in SE 2.0 mph 2.0 mph 99% 0.00 in meteobridge W/m2
04:04 47.7 °F 47.5 °F 30.04 in Calm   6.0 mph 99% 0.00 in meteobridge W/m2
04:09 47.7 °F 47.5 °F 30.04 in SSE 2.0 mph 4.0 mph 99% 0.00 in meteobridge W/m2
04:14 47.7 °F 47.5 °F 30.04 in Calm     99% 0.00 in meteobridge W/m2
04:19 47.8 °F 47.7 °F 30.03 in Calm     99% 0.00 in meteobridge W/m2
04:24 47.8 °F 47.7 °F 30.03 in Calm   4.0 mph 99% 0.00 in meteobridge W/m2
04:29 47.8 °F 47.7 °F 30.03 in Calm     99% 0.00 in meteobridge W/m2
04:34 47.7 °F 47.5 °F 30.03 in Calm   2.0 mph 99% 0.00 in meteobridge W/m2
04:39 47.8 °F 47.7 °F 30.02 in SSE 0.9 mph 2.0 mph 99% 0.00 in meteobridge W/m2
04:44 47.8 °F 47.7 °F 30.02 in SSE 2.0 mph 2.0 mph 99% 0.00 in meteobridge W/m2
04:49 48.0 °F 47.5 °F 30.02 in SE 0.9 mph 4.0 mph 98% 0.00 in meteobridge W/m2
04:54 48.0 °F 47.5 °F 30.00 in SE 2.0 mph 2.0 mph 98% 0.00 in meteobridge W/m2
04:59 48.0 °F 47.5 °F 30.00 in Calm   1.0 mph 98% 0.00 in meteobridge W/m2
05:04 48.0 °F 47.5 °F 29.98 in Calm   5.0 mph 98% 0.00 in meteobridge W/m2
05:09 48.0 °F 47.5 °F 29.98 in East 4.0 mph 4.0 mph 98% 0.00 in meteobridge W/m2
05:14 48.2 °F 47.7 °F 29.98 in Calm     98% 0.00 in meteobridge W/m2
05:19 48.0 °F 47.5 °F 29.98 in Calm   5.0 mph 98% 0.00 in meteobridge W/m2
05:24 48.0 °F 47.5 °F 29.98 in Calm     98% 0.00 in meteobridge W/m2
05:29 48.0 °F 47.5 °F 29.98 in SE 0.9 mph 4.0 mph 98% 0.00 in meteobridge W/m2
05:34 48.2 °F 47.7 °F 29.97 in Calm   4.0 mph 98% 0.00 in meteobridge W/m2
05:39 48.2 °F 47.7 °F 29.97 in SE 2.0 mph 5.0 mph 98% 0.00 in meteobridge W/m2
05:44 48.2 °F 47.7 °F 29.97 in Calm   4.0 mph 98% 0.00 in meteobridge W/m2
05:49 48.0 °F 47.5 °F 29.97 in SE 4.9 mph 5.0 mph 98% 0.00 in meteobridge W/m2
05:54 48.0 °F 47.5 °F 29.98 in SE 2.0 mph 2.0 mph 98% 0.00 in meteobridge W/m2
05:59 48.0 °F 47.5 °F 29.98 in Calm   2.0 mph 98% 0.00 in meteobridge W/m2
06:04 48.2 °F 47.7 °F 29.98 in Calm     98% 0.00 in meteobridge W/m2
06:09 48.2 °F 47.7 °F 29.98 in Calm   4.0 mph 98% 0.00 in meteobridge W/m2
06:14 48.4 °F 47.8 °F 29.97 in Calm   2.0 mph 98% 0.00 in meteobridge W/m2
06:19 48.6 °F 48.0 °F 29.98 in Calm   4.0 mph 98% 0.00 in meteobridge W/m2
06:24 48.6 °F 48.0 °F 29.97 in Calm   4.0 mph 98% 0.00 in meteobridge W/m2
06:29 48.6 °F 48.0 °F 29.96 in Calm   5.0 mph 98% 0.00 in meteobridge W/m2
06:34 48.6 °F 48.0 °F 29.97 in Calm   8.0 mph 98% 0.00 in meteobridge W/m2
06:39 48.6 °F 47.7 °F 29.96 in SE 0.9 mph 1.0 mph 97% 0.00 in meteobridge W/m2
06:44 48.4 °F 47.8 °F 29.95 in Calm   2.0 mph 98% 0.00 in meteobridge W/m2
06:49 48.4 °F 47.8 °F 29.95 in SE 2.0 mph 7.0 mph 98% 0.00 in meteobridge W/m2
06:54 48.6 °F 48.0 °F 29.95 in Calm   1.0 mph 98% 0.00 in meteobridge W/m2
06:59 48.6 °F 47.7 °F 29.95 in East 0.9 mph 2.0 mph 97% 0.00 in meteobridge W/m2
07:04 48.6 °F 47.7 °F 29.95 in Calm   4.0 mph 97% 0.00 in meteobridge W/m2
07:09 48.6 °F 47.7 °F 29.95 in SE 2.0 mph 4.0 mph 97% 0.00 in meteobridge W/m2
07:14 48.4 °F 47.5 °F 29.94 in Calm   4.0 mph 97% 0.00 in meteobridge W/m2
07:19 48.4 °F 47.5 °F 29.94 in Calm   6.0 mph 97% 0.00 in meteobridge W/m2
07:24 48.4 °F 47.5 °F 29.94 in Calm   5.0 mph 97% 0.00 in meteobridge W/m2
07:29 48.6 °F 47.7 °F 29.94 in East 2.0 mph 4.0 mph 97% 0.00 in meteobridge W/m2
07:34 48.6 °F 47.7 °F 29.93 in Calm   5.0 mph 97% 0.00 in meteobridge W/m2
07:39 48.6 °F 47.7 °F 29.93 in Calm     97% 0.00 in meteobridge W/m2
07:44 48.6 °F 47.7 °F 29.93 in Calm   5.0 mph 97% 0.00 in meteobridge W/m2
07:49 48.7 °F 47.8 °F 29.92 in Calm   5.0 mph 97% 0.00 in meteobridge W/m2
07:54 48.7 °F 47.8 °F 29.92 in East 2.0 mph 4.0 mph 97% 0.00 in meteobridge W/m2
07:59 48.9 °F 48.0 °F 29.93 in SSE 0.9 mph 4.0 mph 97% 0.00 in meteobridge W/m2
08:04 48.9 °F 48.0 °F 29.92 in SE 6.9 mph 12.0 mph 97% 0.00 in meteobridge W/m2
08:09 49.1 °F 48.2 °F 29.93 in SSE 4.9 mph 5.0 mph 97% 0.00 in meteobridge W/m2
08:14 49.1 °F 48.2 °F 29.92 in SE 0.9 mph 6.0 mph 97% 0.00 in meteobridge W/m2
08:19 49.1 °F 48.2 °F 29.91 in Calm     97% 0.00 in meteobridge W/m2
08:24 49.3 °F 48.4 °F 29.91 in SE 2.0 mph 6.0 mph 97% 0.00 in meteobridge W/m2
08:29 49.3 °F 48.4 °F 29.92 in ESE 2.0 mph 4.0 mph 97% 0.00 in meteobridge W/m2
08:34 49.3 °F 48.4 °F 29.92 in Calm   5.0 mph 97% 0.00 in meteobridge W/m2
08:39 49.3 °F 48.4 °F 29.91 in Calm   4.0 mph 97% 0.00 in meteobridge W/m2
08:44 49.3 °F 48.4 °F 29.92 in Calm   5.0 mph 97% 0.00 in meteobridge W/m2
08:49 49.3 °F 48.4 °F 29.92 in ESE 0.9 mph 4.0 mph 97% 0.00 in meteobridge W/m2
08:54 49.5 °F 48.4 °F 29.91 in Calm   7.0 mph 96% 0.00 in meteobridge W/m2
08:59 49.6 °F 48.6 °F 29.92 in ESE 2.0 mph 5.0 mph 96% 0.00 in meteobridge W/m2
09:04 49.6 °F 48.6 °F 29.91 in SE 2.0 mph 6.0 mph 96% 0.00 in meteobridge W/m2
09:09 49.5 °F 48.6 °F 29.92 in ESE 2.0 mph 6.0 mph 97% 0.02 in meteobridge W/m2
09:14 49.5 °F 48.6 °F 29.92 in ESE 2.0 mph 6.0 mph 97% 0.03 in meteobridge W/m2
09:19 49.3 °F 48.4 °F 29.91 in Calm   5.0 mph 97% 0.07 in meteobridge W/m2
09:24 49.3 °F 48.4 °F 29.91 in East 6.0 mph 6.0 mph 97% 0.09 in meteobridge W/m2
09:29 49.3 °F 48.4 °F 29.90 in SE 4.0 mph 5.0 mph 97% 0.09 in meteobridge W/m2
09:34 49.3 °F 48.4 °F 29.90 in SE 4.9 mph 5.0 mph 97% 0.09 in meteobridge W/m2
09:39 49.3 °F 48.4 °F 29.90 in Calm   7.0 mph 97% 0.11 in meteobridge W/m2
09:44 49.3 °F 48.4 °F 29.90 in Calm   5.0 mph 97% 0.12 in meteobridge W/m2
09:49 49.3 °F 48.4 °F 29.90 in SE 4.0 mph 9.0 mph 97% 0.12 in meteobridge W/m2
09:54 49.3 °F 48.4 °F 29.90 in Calm   5.0 mph 97% 0.13 in meteobridge W/m2
09:59 49.3 °F 48.4 °F 29.90 in Calm   4.0 mph 97% 0.13 in meteobridge W/m2
10:04 49.3 °F 48.4 °F 29.91 in Calm     97% 0.14 in meteobridge W/m2
10:09 49.3 °F 48.4 °F 29.90 in ESE 4.0 mph 7.0 mph 97% 0.12 in meteobridge W/m2
10:14 49.3 °F 48.4 °F 29.90 in Calm   1.0 mph 97% 0.12 in meteobridge W/m2
10:19 49.3 °F 48.4 °F 29.91 in ESE 4.0 mph 4.0 mph 97% 0.08 in meteobridge W/m2
10:24 49.3 °F 48.4 °F 29.90 in SSE 0.9 mph 6.0 mph 97% 0.07 in meteobridge W/m2
10:29 49.3 °F 48.2 °F 29.90 in Calm   7.0 mph 96% 0.07 in meteobridge W/m2
10:34 49.3 °F 48.4 °F 29.90 in Calm   2.0 mph 97% 0.07 in meteobridge W/m2
10:39 49.1 °F 48.0 °F 29.89 in ESE 0.9 mph 5.0 mph 96% 0.05 in meteobridge W/m2
10:44 49.1 °F 48.2 °F 29.89 in SE 2.0 mph 6.0 mph 97% 0.05 in meteobridge W/m2
10:49 48.9 °F 48.0 °F 29.90 in SE 2.0 mph 2.0 mph 97% 0.06 in meteobridge W/m2
10:54 48.9 °F 48.0 °F 29.90 in ESE 2.0 mph 4.0 mph 97% 0.07 in meteobridge W/m2
10:59 48.9 °F 48.0 °F 29.89 in Calm   5.0 mph 97% 0.09 in meteobridge W/m2
11:04 48.9 °F 48.0 °F 29.89 in Calm   4.0 mph 97% 0.09 in meteobridge W/m2
11:09 48.9 °F 48.0 °F 29.88 in Calm   4.0 mph 97% 0.11 in meteobridge W/m2
11:14 49.1 °F 48.6 °F 29.88 in Calm     98% 0.11 in meteobridge W/m2
11:19 49.1 °F 48.2 °F 29.88 in Calm     97% 0.11 in meteobridge W/m2
11:24 49.3 °F 48.4 °F 29.88 in Calm   5.0 mph 97% 0.10 in meteobridge W/m2
11:29 49.3 °F 48.4 °F 29.88 in Calm   8.0 mph 97% 0.10 in meteobridge W/m2
11:34 49.3 °F 48.4 °F 29.87 in SE 4.0 mph 5.0 mph 97% 0.10 in meteobridge W/m2
11:39 49.3 °F 48.4 °F 29.88 in Calm   1.0 mph 97% 0.10 in meteobridge W/m2
11:44 49.3 °F 48.4 °F 29.87 in Calm   4.0 mph 97% 0.09 in meteobridge W/m2
11:49 49.3 °F 48.4 °F 29.87 in Calm     97% 0.09 in meteobridge W/m2
11:54 49.3 °F 48.4 °F 29.86 in Calm   2.0 mph 97% 0.07 in meteobridge W/m2
11:59 49.3 °F 48.7 °F 29.85 in Calm   6.0 mph 98% 0.05 in meteobridge W/m2
12:04 49.3 °F 48.7 °F 29.85 in Calm   1.0 mph 98% 0.05 in meteobridge W/m2
12:09 49.6 °F 49.1 °F 29.85 in Calm   2.0 mph 98% 0.02 in meteobridge W/m2
12:14 49.8 °F 49.3 °F 29.85 in Calm   5.0 mph 98% 0.02 in meteobridge W/m2
12:19 50.0 °F 49.5 °F 29.85 in Calm   4.0 mph 98% 0.02 in meteobridge W/m2
12:24 50.0 °F 49.5 °F 29.85 in Calm     98% 0.03 in meteobridge W/m2
12:29 50.0 °F 49.5 °F 29.84 in Calm   2.0 mph 98% 0.04 in meteobridge W/m2
12:34 50.4 °F 50.0 °F 29.83 in Calm   2.0 mph 99% 0.06 in meteobridge W/m2
12:39 50.5 °F 50.2 °F 29.81 in Calm   1.0 mph 99% 0.10 in meteobridge W/m2
12:44 50.5 °F 50.2 °F 29.81 in Calm     99% 0.12 in meteobridge W/m2
12:49 50.4 °F 50.0 °F 29.80 in Calm     99% 0.12 in meteobridge W/m2
12:54 50.2 °F 49.6 °F 29.79 in Calm   2.0 mph 98% 0.15 in meteobridge W/m2
12:59 49.8 °F 49.3 °F 29.79 in ESE 0.9 mph 2.0 mph 98% 0.16 in meteobridge W/m2
13:04 49.8 °F 49.3 °F 29.78 in Calm     98% 0.15 in meteobridge W/m2
13:09 49.6 °F 49.1 °F 29.77 in Calm   2.0 mph 98% 0.16 in meteobridge W/m2
13:14 49.5 °F 48.9 °F 29.77 in Calm   2.0 mph 98% 0.17 in meteobridge W/m2
13:19 49.3 °F 48.7 °F 29.77 in Calm   1.0 mph 98% 0.17 in meteobridge W/m2
13:24 49.3 °F 48.7 °F 29.76 in Calm   4.0 mph 98% 0.16 in meteobridge W/m2
13:29 49.3 °F 48.7 °F 29.75 in ESE 0.9 mph 2.0 mph 98% 0.17 in meteobridge W/m2
13:34 49.3 °F 48.7 °F 29.74 in SE 0.9 mph 2.0 mph 98% 0.15 in meteobridge W/m2
13:39 49.8 °F 49.5 °F 29.74 in Calm     99% 0.13 in meteobridge W/m2
13:44 50.7 °F 50.4 °F 29.73 in Calm   8.0 mph 99% 0.12 in meteobridge W/m2
13:49 52.9 °F 52.9 °F 29.73 in SE 2.0 mph 4.0 mph 100% 0.11 in meteobridge W/m2
13:54 54.3 °F 54.3 °F 29.72 in SE 4.0 mph 6.0 mph 100% 0.09 in meteobridge W/m2
13:59 54.9 °F 54.9 °F 29.72 in ESE 4.0 mph 7.0 mph 100% 0.07 in meteobridge W/m2
14:04 55.2 °F 55.2 °F 29.72 in SE 4.0 mph 5.0 mph 100% 0.06 in meteobridge W/m2
14:09 55.2 °F 54.9 °F 29.71 in SSW 2.0 mph 7.0 mph 99% 0.06 in meteobridge W/m2
14:14 55.6 °F 55.0 °F 29.70 in SSE 6.0 mph 8.0 mph 98% 0.06 in meteobridge W/m2
14:19 55.8 °F 55.2 °F 29.70 in ESE 2.0 mph 5.0 mph 98% 0.07 in meteobridge W/m2
14:24 55.8 °F 55.2 °F 29.70 in Calm   6.0 mph 98% 0.07 in meteobridge W/m2
14:29 55.8 °F 55.2 °F 29.69 in Calm   5.0 mph 98% 0.05 in meteobridge W/m2
14:34 55.8 °F 54.9 °F 29.69 in SSE 0.9 mph 7.0 mph 97% 0.04 in meteobridge W/m2
14:39 55.9 °F 55.0 °F 29.68 in Calm   6.0 mph 97% 0.04 in meteobridge W/m2
14:44 56.1 °F 55.2 °F 29.68 in Calm   1.0 mph 97% 0.03 in meteobridge W/m2
14:49 55.9 °F 55.0 °F 29.67 in Calm     97% 0.04 in meteobridge W/m2
14:54 56.1 °F 55.2 °F 29.67 in Calm   1.0 mph 97% 0.04 in meteobridge W/m2
14:59 56.1 °F 55.6 °F 29.67 in Calm   2.0 mph 98% 0.04 in meteobridge W/m2
15:04 56.1 °F 55.6 °F 29.66 in Calm   5.0 mph 98% 0.05 in meteobridge W/m2
15:09 56.1 °F 55.6 °F 29.66 in SE 0.9 mph 5.0 mph 98% 0.06 in meteobridge W/m2
15:14 56.5 °F 55.9 °F 29.66 in SE 4.0 mph 5.0 mph 98% 0.06 in meteobridge W/m2
15:19 56.5 °F 55.6 °F 29.66 in SE 2.0 mph 5.0 mph 97% 0.06 in meteobridge W/m2
15:24 56.5 °F 55.6 °F 29.65 in Calm   4.0 mph 97% 0.06 in meteobridge W/m2
15:29 56.5 °F 55.6 °F 29.65 in SE 6.9 mph 8.0 mph 97% 0.07 in meteobridge W/m2
15:34 56.7 °F 55.8 °F 29.65 in East 4.0 mph 6.0 mph 97% 0.07 in meteobridge W/m2
15:39 56.8 °F 55.9 °F 29.64 in ESE 2.0 mph 2.0 mph 97% 0.07 in meteobridge W/m2
15:44 56.8 °F 55.9 °F 29.63 in East 2.0 mph 6.0 mph 97% 0.07 in meteobridge W/m2
15:49 56.8 °F 55.9 °F 29.62 in Calm   1.0 mph 97% 0.08 in meteobridge W/m2
15:54 56.8 °F 55.9 °F 29.61 in Calm   2.0 mph 97% 0.08 in meteobridge W/m2
15:59 57.0 °F 56.1 °F 29.62 in Calm     97% 0.07 in meteobridge W/m2
16:04 57.2 °F 56.3 °F 29.61 in Calm     97% 0.07 in meteobridge W/m2
16:09 57.4 °F 56.3 °F 29.62 in Calm     96% 0.07 in meteobridge W/m2
16:14 57.6 °F 56.5 °F 29.61 in Calm     96% 0.06 in meteobridge W/m2
16:19 57.6 °F 56.5 °F 29.61 in Calm     96% 0.05 in meteobridge W/m2
16:24 57.6 °F 56.5 °F 29.61 in Calm     96% 0.06 in meteobridge W/m2
16:29 57.6 °F 56.5 °F 29.60 in Calm     96% 0.05 in meteobridge W/m2
16:34 57.6 °F 56.5 °F 29.60 in Calm     96% 0.05 in meteobridge W/m2
16:39 57.6 °F 56.5 °F 29.59 in Calm     96% 0.05 in meteobridge W/m2
16:44 57.6 °F 56.5 °F 29.59 in Calm     96% 0.05 in meteobridge W/m2
16:49 57.7 °F 56.7 °F 29.59 in Calm     96% 0.05 in meteobridge W/m2
16:54 57.7 °F 56.7 °F 29.59 in Calm     96% 0.04 in meteobridge W/m2
16:59 57.7 °F 56.7 °F 29.59 in Calm     96% 0.05 in meteobridge W/m2
17:04 57.7 °F 56.7 °F 29.59 in Calm     96% 0.06 in meteobridge W/m2
17:09 57.6 °F 56.5 °F 29.58 in Calm     96% 0.07 in meteobridge W/m2
17:14 57.6 °F 56.7 °F 29.58 in Calm     97% 0.09 in meteobridge W/m2
17:19 57.4 °F 56.5 °F 29.58 in Calm     97% 0.09 in meteobridge W/m2
17:24 57.4 °F 56.3 °F 29.58 in Calm     96% 0.09 in meteobridge W/m2
17:29 57.4 °F 56.5 °F 29.59 in Calm     97% 0.12 in meteobridge W/m2
17:34 57.2 °F 56.3 °F 29.58 in Calm     97% 0.14 in meteobridge W/m2
17:39 57.0 °F 56.1 °F 29.58 in Calm     97% 0.14 in meteobridge W/m2
17:44 57.0 °F 56.1 °F 29.58 in Calm     97% 0.14 in meteobridge W/m2
17:49 57.0 °F 56.1 °F 29.57 in Calm     97% 0.13 in meteobridge W/m2
17:54 57.0 °F 56.1 °F 29.57 in Calm     97% 0.14 in meteobridge W/m2
17:59 56.8 °F 56.3 °F 29.57 in Calm     98% 0.15 in meteobridge W/m2
18:04 57.0 °F 56.1 °F 29.58 in Calm     97% 0.15 in meteobridge W/m2
18:09 56.8 °F 56.3 °F 29.57 in Calm     98% 0.18 in meteobridge W/m2
18:14 56.8 °F 56.3 °F 29.57 in Calm     98% 0.20 in meteobridge W/m2
18:19 56.8 °F 56.3 °F 29.57 in Calm     98% 0.22 in meteobridge W/m2
18:24 56.7 °F 56.1 °F 29.57 in Calm     98% 0.27 in meteobridge W/m2
18:29 56.5 °F 55.9 °F 29.58 in Calm     98% 0.29 in meteobridge W/m2
18:34 56.5 °F 55.9 °F 29.59 in Calm     98% 0.31 in meteobridge W/m2
18:39 56.5 °F 55.9 °F 29.58 in Calm     98% 0.35 in meteobridge W/m2
18:44 56.1 °F 55.6 °F 29.58 in Calm     98% 0.40 in meteobridge W/m2
18:49 56.1 °F 55.6 °F 29.58 in Calm     98% 0.43 in meteobridge W/m2
18:54 55.9 °F 55.4 °F 29.57 in Calm     98% 0.46 in meteobridge W/m2
18:59 55.9 °F 55.4 °F 29.54 in Calm     98% 0.45 in meteobridge W/m2
19:04 55.8 °F 55.2 °F 29.54 in Calm     98% 0.44 in meteobridge W/m2
19:09 55.8 °F 55.2 °F 29.55 in Calm     98% 0.41 in meteobridge W/m2
19:14 55.8 °F 55.4 °F 29.56 in Calm     99% 0.36 in meteobridge W/m2
19:19 55.8 °F 55.2 °F 29.56 in Calm     98% 0.32 in meteobridge W/m2
19:24 55.8 °F 55.2 °F 29.57 in Calm     98% 0.28 in meteobridge W/m2
19:29 55.8 °F 55.2 °F 29.57 in Calm     98% 0.23 in meteobridge W/m2
19:34 55.8 °F 55.2 °F 29.57 in Calm     98% 0.19 in meteobridge W/m2
19:39 55.8 °F 55.2 °F 29.57 in Calm     98% 0.14 in meteobridge W/m2
19:44 55.8 °F 55.2 °F 29.58 in Calm     98% 0.10 in meteobridge W/m2
19:49 55.6 °F 55.0 °F 29.58 in Calm     98% 0.07 in meteobridge W/m2
19:54 55.6 °F 55.0 °F 29.58 in Calm     98% 0.04 in meteobridge W/m2
19:59 55.4 °F 54.9 °F 29.58 in Calm     98% 0.02 in meteobridge W/m2
20:04 55.2 °F 54.7 °F 29.59 in Calm     98% 0.02 in meteobridge W/m2
20:09 55.2 °F 54.9 °F 29.59 in Calm     99% 0.01 in meteobridge W/m2
20:14 55.4 °F 55.0 °F 29.59 in Calm     99% 0.01 in meteobridge W/m2
20:19 55.2 °F 54.9 °F 29.58 in Calm     99% 0.01 in meteobridge W/m2
20:24 55.4 °F 55.0 °F 29.59 in Calm     99% 0.01 in meteobridge W/m2
20:29 55.2 °F 54.7 °F 29.59 in Calm     98% 0.01 in meteobridge W/m2
20:34 55.2 °F 54.7 °F 29.59 in Calm     98% 0.01 in meteobridge W/m2
20:39 55.0 °F 54.1 °F 29.59 in Calm     97% 0.01 in meteobridge W/m2
20:44 54.7 °F 53.8 °F 29.58 in Calm     97% 0.00 in meteobridge W/m2
20:49 54.3 °F 53.2 °F 29.58 in Calm     96% 0.00 in meteobridge W/m2
20:54 54.0 °F 52.9 °F 29.58 in Calm     96% 0.00 in meteobridge W/m2
20:59 54.0 °F 52.9 °F 29.58 in Calm     96% 0.00 in meteobridge W/m2
21:04 53.8 °F 52.9 °F 29.58 in Calm     97% 0.00 in meteobridge W/m2
21:09 53.4 °F 52.5 °F 29.58 in Calm     97% 0.00 in meteobridge W/m2
21:14 53.2 °F 52.3 °F 29.57 in Calm     97% 0.00 in meteobridge W/m2
21:19 53.1 °F 52.2 °F 29.58 in Calm     97% 0.00 in meteobridge W/m2
21:24 53.1 °F 52.2 °F 29.58 in Calm     97% 0.00 in meteobridge W/m2
21:29 52.9 °F 52.3 °F 29.57 in Calm     98% 0.00 in meteobridge W/m2
21:34 52.9 °F 52.0 °F 29.58 in Calm     97% 0.00 in meteobridge W/m2
21:39 52.5 °F 51.6 °F 29.58 in Calm     97% 0.01 in meteobridge W/m2
21:44 52.3 °F 51.3 °F 29.58 in Calm     96% 0.01 in meteobridge W/m2
21:49 52.0 °F 51.1 °F 29.58 in Calm     97% 0.01 in meteobridge W/m2
21:54 51.8 °F 50.7 °F 29.58 in Calm     96% 0.01 in meteobridge W/m2
21:59 51.6 °F 50.7 °F 29.58 in Calm     97% 0.01 in meteobridge W/m2
22:04 51.4 °F 50.5 °F 29.58 in Calm     97% 0.01 in meteobridge W/m2
22:09 51.3 °F 50.4 °F 29.58 in Calm     97% 0.01 in meteobridge W/m2
22:14 51.1 °F 50.2 °F 29.58 in Calm     97% 0.01 in meteobridge W/m2
22:19 51.1 °F 50.2 °F 29.58 in Calm     97% 0.01 in meteobridge W/m2
22:24 51.1 °F 50.2 °F 29.58 in Calm     97% 0.01 in meteobridge W/m2
22:29 51.1 °F 50.2 °F 29.59 in Calm     97% 0.01 in meteobridge W/m2
22:34 51.1 °F 50.5 °F 29.59 in Calm     98% 0.01 in meteobridge W/m2
22:39 50.9 °F 50.4 °F 29.59 in Calm     98% 0.00 in meteobridge W/m2
22:44 50.7 °F 50.2 °F 29.59 in Calm     98% 0.00 in meteobridge W/m2
22:49 50.7 °F 50.2 °F 29.60 in Calm     98% 0.00 in meteobridge W/m2
22:54 50.7 °F 49.8 °F 29.59 in Calm     97% 0.00 in meteobridge W/m2
22:59 50.7 °F 49.8 °F 29.59 in Calm     97% 0.00 in meteobridge W/m2
23:04 50.7 °F 49.8 °F 29.60 in Calm     97% 0.00 in meteobridge W/m2
23:09 50.5 °F 49.6 °F 29.60 in Calm     97% 0.00 in meteobridge W/m2
23:14 50.2 °F 49.1 °F 29.60 in Calm     96% 0.00 in meteobridge W/m2
23:19 50.0 °F 48.6 °F 29.60 in Calm     95% 0.00 in meteobridge W/m2
23:24 49.8 °F 48.4 °F 29.61 in Calm     95% 0.00 in meteobridge W/m2
23:29 49.6 °F 48.0 °F 29.61 in Calm     94% 0.00 in meteobridge W/m2
23:34 49.3 °F 47.8 °F 29.61 in Calm     95% 0.00 in meteobridge W/m2
23:39 48.7 °F 47.1 °F 29.62 in Calm     94% 0.00 in meteobridge W/m2
23:44 48.2 °F 46.0 °F 29.62 in Calm     92% 0.00 in meteobridge W/m2
23:49 47.8 °F 45.9 °F 29.62 in Calm     93% 0.00 in meteobridge W/m2
23:54 47.5 °F 45.9 °F 29.63 in Calm     94% 0.00 in meteobridge W/m2
23:59 46.9 °F 45.0 °F 29.63 in Calm     93% 0.00 in meteobridge W/m2
EllijayWeather
Compliments of Weather Underground - 2.5 mb